sensor_id;sensor_type;location;lat;lon;timestamp;P1;durP1;ratioP1;P2;durP2;ratioP2
23388;SDS011;11867;51.198;11.966;2024-01-30T00:03:30;4.95;;;3.50;;
23388;SDS011;11867;51.198;11.966;2024-01-30T00:08:53;4.18;;;2.63;;
23388;SDS011;11867;51.198;11.966;2024-01-30T00:14:15;6.40;;;3.55;;
23388;SDS011;11867;51.198;11.966;2024-01-30T00:19:40;8.65;;;4.30;;
23388;SDS011;11867;51.198;11.966;2024-01-30T00:25:03;7.40;;;3.50;;
23388;SDS011;11867;51.198;11.966;2024-01-30T00:30:27;6.50;;;4.05;;
23388;SDS011;11867;51.198;11.966;2024-01-30T00:35:52;6.50;;;4.00;;
23388;SDS011;11867;51.198;11.966;2024-01-30T00:41:16;4.50;;;2.95;;
23388;SDS011;11867;51.198;11.966;2024-01-30T00:46:40;5.85;;;3.88;;
23388;SDS011;11867;51.198;11.966;2024-01-30T00:52:04;6.97;;;4.03;;
23388;SDS011;11867;51.198;11.966;2024-01-30T00:57:28;6.75;;;3.97;;
23388;SDS011;11867;51.198;11.966;2024-01-30T01:02:51;7.07;;;4.03;;
23388;SDS011;11867;51.198;11.966;2024-01-30T01:08:15;7.50;;;4.07;;
23388;SDS011;11867;51.198;11.966;2024-01-30T01:13:38;5.72;;;3.50;;
23388;SDS011;11867;51.198;11.966;2024-01-30T01:19:01;6.38;;;4.00;;
23388;SDS011;11867;51.198;11.966;2024-01-30T01:24:26;4.27;;;2.70;;
23388;SDS011;11867;51.198;11.966;2024-01-30T01:29:49;3.90;;;2.80;;
23388;SDS011;11867;51.198;11.966;2024-01-30T01:35:12;9.90;;;4.55;;
23388;SDS011;11867;51.198;11.966;2024-01-30T01:40:36;5.93;;;3.75;;
23388;SDS011;11867;51.198;11.966;2024-01-30T01:46:01;8.63;;;4.35;;
23388;SDS011;11867;51.198;11.966;2024-01-30T01:51:24;10.20;;;4.20;;
23388;SDS011;11867;51.198;11.966;2024-01-30T01:56:51;8.80;;;3.95;;
23388;SDS011;11867;51.198;11.966;2024-01-30T02:02:15;5.80;;;3.75;;
23388;SDS011;11867;51.198;11.966;2024-01-30T02:07:41;7.13;;;3.80;;
23388;SDS011;11867;51.198;11.966;2024-01-30T02:13:07;3.65;;;3.00;;
23388;SDS011;11867;51.198;11.966;2024-01-30T02:18:29;14.70;;;3.75;;
23388;SDS011;11867;51.198;11.966;2024-01-30T02:23:54;6.22;;;4.18;;
23388;SDS011;11867;51.198;11.966;2024-01-30T02:29:17;6.30;;;4.28;;
23388;SDS011;11867;51.198;11.966;2024-01-30T02:34:40;7.55;;;3.80;;
23388;SDS011;11867;51.198;11.966;2024-01-30T02:40:06;6.10;;;4.53;;
23388;SDS011;11867;51.198;11.966;2024-01-30T02:45:30;7.60;;;4.32;;
23388;SDS011;11867;51.198;11.966;2024-01-30T02:50:53;6.32;;;4.72;;
23388;SDS011;11867;51.198;11.966;2024-01-30T02:56:17;7.85;;;4.90;;
23388;SDS011;11867;51.198;11.966;2024-01-30T03:01:43;5.45;;;3.67;;
23388;SDS011;11867;51.198;11.966;2024-01-30T03:07:06;7.93;;;4.65;;
23388;SDS011;11867;51.198;11.966;2024-01-30T03:12:31;7.97;;;4.70;;
23388;SDS011;11867;51.198;11.966;2024-01-30T03:17:54;5.30;;;3.90;;
23388;SDS011;11867;51.198;11.966;2024-01-30T03:23:17;10.80;;;4.68;;
23388;SDS011;11867;51.198;11.966;2024-01-30T03:28:41;6.93;;;4.45;;
23388;SDS011;11867;51.198;11.966;2024-01-30T03:34:04;6.07;;;3.72;;
23388;SDS011;11867;51.198;11.966;2024-01-30T03:39:27;7.22;;;4.20;;
23388;SDS011;11867;51.198;11.966;2024-01-30T03:44:51;8.10;;;4.50;;
23388;SDS011;11867;51.198;11.966;2024-01-30T03:50:15;8.60;;;4.50;;
23388;SDS011;11867;51.198;11.966;2024-01-30T03:55:38;6.25;;;4.10;;
23388;SDS011;11867;51.198;11.966;2024-01-30T04:01:02;8.73;;;4.60;;
23388;SDS011;11867;51.198;11.966;2024-01-30T04:06:25;6.68;;;3.45;;
23388;SDS011;11867;51.198;11.966;2024-01-30T04:11:48;7.28;;;4.20;;
23388;SDS011;11867;51.198;11.966;2024-01-30T04:17:13;7.75;;;4.20;;
23388;SDS011;11867;51.198;11.966;2024-01-30T04:22:36;6.53;;;2.95;;
23388;SDS011;11867;51.198;11.966;2024-01-30T04:27:58;7.53;;;4.35;;
23388;SDS011;11867;51.198;11.966;2024-01-30T04:33:23;7.88;;;4.18;;
23388;SDS011;11867;51.198;11.966;2024-01-30T04:38:46;5.93;;;3.05;;
23388;SDS011;11867;51.198;11.966;2024-01-30T04:44:09;6.15;;;3.78;;
23388;SDS011;11867;51.198;11.966;2024-01-30T04:49:33;9.63;;;4.07;;
23388;SDS011;11867;51.198;11.966;2024-01-30T04:54:56;5.13;;;3.22;;
23388;SDS011;11867;51.198;11.966;2024-01-30T05:00:19;7.55;;;4.53;;
23388;SDS011;11867;51.198;11.966;2024-01-30T05:05:44;8.40;;;5.00;;
23388;SDS011;11867;51.198;11.966;2024-01-30T05:11:07;7.28;;;3.55;;
23388;SDS011;11867;51.198;11.966;2024-01-30T05:16:29;5.68;;;3.90;;
23388;SDS011;11867;51.198;11.966;2024-01-30T05:21:54;8.57;;;4.18;;
23388;SDS011;11867;51.198;11.966;2024-01-30T05:27:16;4.18;;;2.95;;
23388;SDS011;11867;51.198;11.966;2024-01-30T05:32:39;7.13;;;4.28;;
23388;SDS011;11867;51.198;11.966;2024-01-30T05:38:04;7.45;;;4.13;;
23388;SDS011;11867;51.198;11.966;2024-01-30T05:43:27;6.15;;;4.00;;
23388;SDS011;11867;51.198;11.966;2024-01-30T05:48:49;7.43;;;4.43;;
23388;SDS011;11867;51.198;11.966;2024-01-30T05:54:14;9.82;;;4.35;;
23388;SDS011;11867;51.198;11.966;2024-01-30T05:59:38;4.78;;;3.20;;
23388;SDS011;11867;51.198;11.966;2024-01-30T06:05:03;6.88;;;3.45;;
23388;SDS011;11867;51.198;11.966;2024-01-30T06:10:27;6.68;;;3.55;;
23388;SDS011;11867;51.198;11.966;2024-01-30T06:15:50;6.35;;;3.60;;
23388;SDS011;11867;51.198;11.966;2024-01-30T06:21:13;7.05;;;4.40;;
23388;SDS011;11867;51.198;11.966;2024-01-30T06:26:37;5.85;;;3.80;;
23388;SDS011;11867;51.198;11.966;2024-01-30T06:32:00;10.15;;;4.07;;
23388;SDS011;11867;51.198;11.966;2024-01-30T06:37:23;8.38;;;4.40;;
23388;SDS011;11867;51.198;11.966;2024-01-30T06:42:48;7.88;;;4.55;;
23388;SDS011;11867;51.198;11.966;2024-01-30T06:48:11;4.97;;;3.05;;
23388;SDS011;11867;51.198;11.966;2024-01-30T06:53:34;7.38;;;3.38;;
23388;SDS011;11867;51.198;11.966;2024-01-30T06:58:58;6.72;;;3.60;;
23388;SDS011;11867;51.198;11.966;2024-01-30T07:04:21;3.75;;;2.85;;
23388;SDS011;11867;51.198;11.966;2024-01-30T07:09:44;6.88;;;3.85;;
23388;SDS011;11867;51.198;11.966;2024-01-30T07:15:10;4.28;;;2.80;;
23388;SDS011;11867;51.198;11.966;2024-01-30T07:20:36;6.82;;;3.78;;
23388;SDS011;11867;51.198;11.966;2024-01-30T07:25:59;5.57;;;3.92;;
23388;SDS011;11867;51.198;11.966;2024-01-30T07:31:24;5.47;;;3.95;;
23388;SDS011;11867;51.198;11.966;2024-01-30T07:36:48;5.45;;;3.95;;
23388;SDS011;11867;51.198;11.966;2024-01-30T07:42:14;4.38;;;3.47;;
23388;SDS011;11867;51.198;11.966;2024-01-30T07:47:39;6.85;;;4.25;;
23388;SDS011;11867;51.198;11.966;2024-01-30T07:53:01;5.97;;;3.70;;
23388;SDS011;11867;51.198;11.966;2024-01-30T07:58:25;6.03;;;4.00;;
23388;SDS011;11867;51.198;11.966;2024-01-30T08:03:50;4.53;;;3.20;;
23388;SDS011;11867;51.198;11.966;2024-01-30T08:09:13;5.03;;;3.58;;
23388;SDS011;11867;51.198;11.966;2024-01-30T08:14:36;7.15;;;4.10;;
23388;SDS011;11867;51.198;11.966;2024-01-30T08:20:01;4.80;;;3.97;;
23388;SDS011;11867;51.198;11.966;2024-01-30T08:25:26;6.63;;;4.00;;
23388;SDS011;11867;51.198;11.966;2024-01-30T08:30:49;5.68;;;3.83;;
23388;SDS011;11867;51.198;11.966;2024-01-30T08:36:14;6.05;;;4.38;;
23388;SDS011;11867;51.198;11.966;2024-01-30T08:41:36;5.72;;;3.97;;
23388;SDS011;11867;51.198;11.966;2024-01-30T08:46:59;5.88;;;4.35;;
23388;SDS011;11867;51.198;11.966;2024-01-30T08:52:24;9.15;;;4.60;;
23388;SDS011;11867;51.198;11.966;2024-01-30T08:57:47;9.25;;;4.80;;
23388;SDS011;11867;51.198;11.966;2024-01-30T09:03:10;8.93;;;4.80;;
23388;SDS011;11867;51.198;11.966;2024-01-30T09:08:34;7.03;;;5.07;;
23388;SDS011;11867;51.198;11.966;2024-01-30T09:13:57;4.78;;;3.65;;
23388;SDS011;11867;51.198;11.966;2024-01-30T09:19:22;5.35;;;4.70;;
23388;SDS011;11867;51.198;11.966;2024-01-30T09:24:47;6.28;;;5.03;;
23388;SDS011;11867;51.198;11.966;2024-01-30T09:30:10;8.48;;;4.72;;
23388;SDS011;11867;51.198;11.966;2024-01-30T09:35:33;8.30;;;4.90;;
23388;SDS011;11867;51.198;11.966;2024-01-30T09:40:58;7.90;;;4.45;;
23388;SDS011;11867;51.198;11.966;2024-01-30T09:46:26;7.80;;;4.97;;
23388;SDS011;11867;51.198;11.966;2024-01-30T09:51:53;8.20;;;4.82;;
23388;SDS011;11867;51.198;11.966;2024-01-30T09:57:18;7.13;;;4.78;;
23388;SDS011;11867;51.198;11.966;2024-01-30T10:02:42;5.85;;;5.07;;
23388;SDS011;11867;51.198;11.966;2024-01-30T10:08:07;6.45;;;4.25;;
23388;SDS011;11867;51.198;11.966;2024-01-30T10:13:35;7.30;;;5.35;;
23388;SDS011;11867;51.198;11.966;2024-01-30T10:18:58;10.13;;;5.75;;
23388;SDS011;11867;51.198;11.966;2024-01-30T10:24:25;7.05;;;5.30;;
23388;SDS011;11867;51.198;11.966;2024-01-30T10:29:53;8.55;;;5.07;;
23388;SDS011;11867;51.198;11.966;2024-01-30T10:35:17;7.55;;;4.80;;
23388;SDS011;11867;51.198;11.966;2024-01-30T10:40:40;8.90;;;5.45;;
23388;SDS011;11867;51.198;11.966;2024-01-30T10:46:09;8.10;;;5.18;;
23388;SDS011;11867;51.198;11.966;2024-01-30T10:51:39;6.97;;;4.93;;
23388;SDS011;11867;51.198;11.966;2024-01-30T10:57:05;8.80;;;4.60;;
23388;SDS011;11867;51.198;11.966;2024-01-30T11:02:31;5.45;;;4.07;;
23388;SDS011;11867;51.198;11.966;2024-01-30T11:07:57;6.72;;;5.05;;
23388;SDS011;11867;51.198;11.966;2024-01-30T11:13:20;6.80;;;5.10;;
23388;SDS011;11867;51.198;11.966;2024-01-30T11:18:49;5.88;;;5.18;;
23388;SDS011;11867;51.198;11.966;2024-01-30T11:24:16;9.32;;;5.05;;
23388;SDS011;11867;51.198;11.966;2024-01-30T11:29:39;7.45;;;5.00;;
23388;SDS011;11867;51.198;11.966;2024-01-30T11:35:04;7.18;;;4.88;;
23388;SDS011;11867;51.198;11.966;2024-01-30T11:40:31;6.10;;;4.85;;
23388;SDS011;11867;51.198;11.966;2024-01-30T11:45:55;7.50;;;4.55;;
23388;SDS011;11867;51.198;11.966;2024-01-30T11:51:23;5.90;;;4.45;;
23388;SDS011;11867;51.198;11.966;2024-01-30T11:56:46;6.63;;;4.97;;
23388;SDS011;11867;51.198;11.966;2024-01-30T12:02:09;8.07;;;5.45;;
23388;SDS011;11867;51.198;11.966;2024-01-30T12:07:39;7.97;;;5.00;;
23388;SDS011;11867;51.198;11.966;2024-01-30T12:13:02;6.70;;;5.00;;
23388;SDS011;11867;51.198;11.966;2024-01-30T12:18:26;6.80;;;4.65;;
23388;SDS011;11867;51.198;11.966;2024-01-30T12:23:50;6.22;;;4.63;;
23388;SDS011;11867;51.198;11.966;2024-01-30T12:29:14;6.15;;;4.38;;
23388;SDS011;11867;51.198;11.966;2024-01-30T12:34:40;9.15;;;4.97;;
23388;SDS011;11867;51.198;11.966;2024-01-30T12:40:19;6.68;;;4.78;;
23388;SDS011;11867;51.198;11.966;2024-01-30T12:45:42;6.10;;;4.35;;
23388;SDS011;11867;51.198;11.966;2024-01-30T12:51:05;6.95;;;4.80;;
23388;SDS011;11867;51.198;11.966;2024-01-30T12:56:29;5.72;;;4.68;;
23388;SDS011;11867;51.198;11.966;2024-01-30T13:01:52;5.72;;;4.65;;
23388;SDS011;11867;51.198;11.966;2024-01-30T13:07:15;8.55;;;5.20;;
23388;SDS011;11867;51.198;11.966;2024-01-30T13:12:40;6.70;;;4.55;;
23388;SDS011;11867;51.198;11.966;2024-01-30T13:18:05;5.72;;;4.60;;
23388;SDS011;11867;51.198;11.966;2024-01-30T13:23:28;6.05;;;4.53;;
23388;SDS011;11867;51.198;11.966;2024-01-30T13:28:53;8.65;;;5.22;;
23388;SDS011;11867;51.198;11.966;2024-01-30T13:34:15;5.43;;;4.25;;
23388;SDS011;11867;51.198;11.966;2024-01-30T13:39:39;6.60;;;4.47;;
23388;SDS011;11867;51.198;11.966;2024-01-30T13:45:04;5.45;;;4.60;;
23388;SDS011;11867;51.198;11.966;2024-01-30T13:50:27;6.90;;;4.47;;
23388;SDS011;11867;51.198;11.966;2024-01-30T13:55:50;10.30;;;4.88;;
23388;SDS011;11867;51.198;11.966;2024-01-30T14:01:15;7.97;;;4.88;;
23388;SDS011;11867;51.198;11.966;2024-01-30T14:06:38;7.78;;;5.05;;
23388;SDS011;11867;51.198;11.966;2024-01-30T14:12:13;6.20;;;4.88;;
23388;SDS011;11867;51.198;11.966;2024-01-30T14:17:38;8.80;;;5.15;;
23388;SDS011;11867;51.198;11.966;2024-01-30T14:23:01;8.10;;;5.32;;
23388;SDS011;11867;51.198;11.966;2024-01-30T14:28:24;8.80;;;5.65;;
23388;SDS011;11867;51.198;11.966;2024-01-30T14:33:48;8.25;;;5.03;;
23388;SDS011;11867;51.198;11.966;2024-01-30T14:39:14;7.13;;;5.05;;
23388;SDS011;11867;51.198;11.966;2024-01-30T14:44:37;9.98;;;5.55;;
23388;SDS011;11867;51.198;11.966;2024-01-30T14:50:02;5.85;;;4.68;;
23388;SDS011;11867;51.198;11.966;2024-01-30T14:55:30;5.55;;;4.70;;
23388;SDS011;11867;51.198;11.966;2024-01-30T15:00:53;7.18;;;4.97;;
23388;SDS011;11867;51.198;11.966;2024-01-30T15:06:17;6.68;;;4.70;;
23388;SDS011;11867;51.198;11.966;2024-01-30T15:11:41;8.50;;;5.10;;
23388;SDS011;11867;51.198;11.966;2024-01-30T15:17:04;6.25;;;4.57;;
23388;SDS011;11867;51.198;11.966;2024-01-30T15:22:28;5.20;;;4.05;;
23388;SDS011;11867;51.198;11.966;2024-01-30T15:27:51;8.23;;;4.65;;
23388;SDS011;11867;51.198;11.966;2024-01-30T15:33:14;8.40;;;5.15;;
23388;SDS011;11867;51.198;11.966;2024-01-30T15:38:39;15.88;;;11.48;;
23388;SDS011;11867;51.198;11.966;2024-01-30T15:44:02;6.75;;;4.50;;
23388;SDS011;11867;51.198;11.966;2024-01-30T15:49:25;6.32;;;4.70;;
23388;SDS011;11867;51.198;11.966;2024-01-30T15:54:49;13.02;;;5.30;;
23388;SDS011;11867;51.198;11.966;2024-01-30T16:00:12;8.35;;;5.00;;
23388;SDS011;11867;51.198;11.966;2024-01-30T16:05:36;9.43;;;6.80;;
23388;SDS011;11867;51.198;11.966;2024-01-30T16:11:00;10.25;;;7.07;;
23388;SDS011;11867;51.198;11.966;2024-01-30T16:16:23;9.98;;;4.78;;
23388;SDS011;11867;51.198;11.966;2024-01-30T16:21:47;8.80;;;6.13;;
23388;SDS011;11867;51.198;11.966;2024-01-30T16:27:11;9.02;;;6.55;;
23388;SDS011;11867;51.198;11.966;2024-01-30T16:32:34;8.77;;;5.72;;
23388;SDS011;11867;51.198;11.966;2024-01-30T16:37:58;8.43;;;6.45;;
23388;SDS011;11867;51.198;11.966;2024-01-30T16:43:22;9.48;;;5.90;;
23388;SDS011;11867;51.198;11.966;2024-01-30T16:48:45;8.32;;;5.90;;
23388;SDS011;11867;51.198;11.966;2024-01-30T16:54:08;6.43;;;5.53;;
23388;SDS011;11867;51.198;11.966;2024-01-30T16:59:32;8.88;;;6.80;;
23388;SDS011;11867;51.198;11.966;2024-01-30T17:04:55;9.32;;;6.40;;
23388;SDS011;11867;51.198;11.966;2024-01-30T17:10:31;10.63;;;7.28;;
23388;SDS011;11867;51.198;11.966;2024-01-30T17:15:58;10.07;;;7.35;;
23388;SDS011;11867;51.198;11.966;2024-01-30T17:21:21;10.73;;;6.47;;
23388;SDS011;11867;51.198;11.966;2024-01-30T17:26:44;9.70;;;7.55;;
23388;SDS011;11867;51.198;11.966;2024-01-30T17:32:09;12.02;;;8.48;;
23388;SDS011;11867;51.198;11.966;2024-01-30T17:37:32;12.77;;;8.63;;
23388;SDS011;11867;51.198;11.966;2024-01-30T17:42:56;12.93;;;8.77;;
23388;SDS011;11867;51.198;11.966;2024-01-30T17:48:20;14.88;;;9.60;;
23388;SDS011;11867;51.198;11.966;2024-01-30T17:53:43;12.45;;;8.70;;
23388;SDS011;11867;51.198;11.966;2024-01-30T17:59:06;18.23;;;12.20;;
23388;SDS011;11867;51.198;11.966;2024-01-30T18:04:31;22.50;;;14.95;;
23388;SDS011;11867;51.198;11.966;2024-01-30T18:09:54;18.75;;;12.57;;
23388;SDS011;11867;51.198;11.966;2024-01-30T18:15:17;16.95;;;11.57;;
23388;SDS011;11867;51.198;11.966;2024-01-30T18:20:42;17.17;;;11.15;;
23388;SDS011;11867;51.198;11.966;2024-01-30T18:26:05;19.13;;;10.38;;
23388;SDS011;11867;51.198;11.966;2024-01-30T18:31:28;14.13;;;9.05;;
23388;SDS011;11867;51.198;11.966;2024-01-30T18:36:52;17.73;;;9.98;;
23388;SDS011;11867;51.198;11.966;2024-01-30T18:42:19;16.98;;;10.00;;
23388;SDS011;11867;51.198;11.966;2024-01-30T18:47:42;15.10;;;9.48;;
23388;SDS011;11867;51.198;11.966;2024-01-30T18:53:06;13.68;;;9.73;;
23388;SDS011;11867;51.198;11.966;2024-01-30T18:58:29;14.73;;;9.20;;
23388;SDS011;11867;51.198;11.966;2024-01-30T19:03:52;14.40;;;9.85;;
23388;SDS011;11867;51.198;11.966;2024-01-30T19:09:17;13.38;;;10.70;;
23388;SDS011;11867;51.198;11.966;2024-01-30T19:14:40;11.68;;;8.23;;
23388;SDS011;11867;51.198;11.966;2024-01-30T19:20:03;14.48;;;10.77;;
23388;SDS011;11867;51.198;11.966;2024-01-30T19:25:32;16.38;;;10.82;;
23388;SDS011;11867;51.198;11.966;2024-01-30T19:31:00;17.70;;;12.05;;
23388;SDS011;11867;51.198;11.966;2024-01-30T19:36:23;17.50;;;11.18;;
23388;SDS011;11867;51.198;11.966;2024-01-30T19:41:47;16.20;;;11.65;;
23388;SDS011;11867;51.198;11.966;2024-01-30T19:47:13;20.02;;;11.60;;
23388;SDS011;11867;51.198;11.966;2024-01-30T19:52:36;12.95;;;10.90;;
23388;SDS011;11867;51.198;11.966;2024-01-30T19:58:02;12.25;;;9.30;;
23388;SDS011;11867;51.198;11.966;2024-01-30T20:03:26;18.35;;;12.02;;
23388;SDS011;11867;51.198;11.966;2024-01-30T20:08:49;15.85;;;11.63;;
23388;SDS011;11867;51.198;11.966;2024-01-30T20:14:14;15.40;;;11.38;;
23388;SDS011;11867;51.198;11.966;2024-01-30T20:19:37;14.50;;;11.10;;
23388;SDS011;11867;51.198;11.966;2024-01-30T20:25:01;17.08;;;11.43;;
23388;SDS011;11867;51.198;11.966;2024-01-30T20:30:39;16.23;;;11.35;;
23388;SDS011;11867;51.198;11.966;2024-01-30T20:36:02;14.32;;;11.23;;
23388;SDS011;11867;51.198;11.966;2024-01-30T20:41:28;17.63;;;10.27;;
23388;SDS011;11867;51.198;11.966;2024-01-30T20:46:52;14.73;;;10.65;;
23388;SDS011;11867;51.198;11.966;2024-01-30T20:52:18;18.35;;;10.32;;
23388;SDS011;11867;51.198;11.966;2024-01-30T20:57:41;12.45;;;9.88;;
23388;SDS011;11867;51.198;11.966;2024-01-30T21:03:05;12.48;;;10.20;;
23388;SDS011;11867;51.198;11.966;2024-01-30T21:08:28;14.05;;;10.07;;
23388;SDS011;11867;51.198;11.966;2024-01-30T21:13:51;16.70;;;10.60;;
23388;SDS011;11867;51.198;11.966;2024-01-30T21:19:16;13.57;;;9.45;;
23388;SDS011;11867;51.198;11.966;2024-01-30T21:24:39;13.32;;;10.02;;
23388;SDS011;11867;51.198;11.966;2024-01-30T21:30:02;14.52;;;9.50;;
23388;SDS011;11867;51.198;11.966;2024-01-30T21:35:27;13.33;;;9.77;;
23388;SDS011;11867;51.198;11.966;2024-01-30T21:40:50;10.20;;;7.13;;
23388;SDS011;11867;51.198;11.966;2024-01-30T21:46:22;11.73;;;10.10;;
23388;SDS011;11867;51.198;11.966;2024-01-30T21:51:47;14.82;;;10.38;;
23388;SDS011;11867;51.198;11.966;2024-01-30T21:57:11;14.32;;;9.90;;
23388;SDS011;11867;51.198;11.966;2024-01-30T22:02:34;17.45;;;10.18;;
23388;SDS011;11867;51.198;11.966;2024-01-30T22:07:59;14.57;;;9.23;;
23388;SDS011;11867;51.198;11.966;2024-01-30T22:13:22;11.77;;;9.73;;
23388;SDS011;11867;51.198;11.966;2024-01-30T22:18:46;13.67;;;9.40;;
23388;SDS011;11867;51.198;11.966;2024-01-30T22:24:10;12.88;;;9.25;;
23388;SDS011;11867;51.198;11.966;2024-01-30T22:29:33;10.63;;;7.38;;
23388;SDS011;11867;51.198;11.966;2024-01-30T22:34:56;13.23;;;9.35;;
23388;SDS011;11867;51.198;11.966;2024-01-30T22:40:21;15.85;;;9.40;;
23388;SDS011;11867;51.198;11.966;2024-01-30T22:45:44;11.00;;;7.55;;
23388;SDS011;11867;51.198;11.966;2024-01-30T22:51:07;16.42;;;9.18;;
23388;SDS011;11867;51.198;11.966;2024-01-30T22:56:31;12.10;;;8.80;;
23388;SDS011;11867;51.198;11.966;2024-01-30T23:01:54;13.18;;;9.20;;
23388;SDS011;11867;51.198;11.966;2024-01-30T23:07:17;16.73;;;10.40;;
23388;SDS011;11867;51.198;11.966;2024-01-30T23:12:41;17.77;;;11.15;;
23388;SDS011;11867;51.198;11.966;2024-01-30T23:18:06;12.82;;;9.20;;
23388;SDS011;11867;51.198;11.966;2024-01-30T23:23:29;16.98;;;12.07;;
23388;SDS011;11867;51.198;11.966;2024-01-30T23:28:56;17.48;;;11.57;;
23388;SDS011;11867;51.198;11.966;2024-01-30T23:34:19;15.18;;;10.95;;
23388;SDS011;11867;51.198;11.966;2024-01-30T23:39:44;12.88;;;9.88;;
23388;SDS011;11867;51.198;11.966;2024-01-30T23:45:09;16.25;;;10.30;;
23388;SDS011;11867;51.198;11.966;2024-01-30T23:50:33;15.07;;;10.25;;
23388;SDS011;11867;51.198;11.966;2024-01-30T23:55:56;13.50;;;10.07;;
